Time;durP1;ratioP1;P1;durP2;ratioP2;P2;SDS_P1;SDS_P2;PMS_P1;PMS_P2;Temp;Humidity;BMP_temperature;BMP_pressure;BME280_temperature;BME280_humidity;BME280_pressure;Samples;Min_cycle;Max_cycle;Signal;HPM_P1;HPM_P2
2022/04/20 00:02:25;;;;;;;4.03;2.08;;;10.30;74.30;;;;;;4985579;28;20030;-79
2022/04/20 00:04:55;;;;;;;6.53;3.47;;;10.30;74.00;;;;;;5001190;28;20030;-78
2022/04/20 00:07:29;;;;;;;5.80;2.80;;;10.30;73.90;;;;;;4982983;28;20042;-78
2022/04/20 00:09:55;;;;;;;;;;;10.30;74.10;;;;;;4989654;28;20038;-78
2022/04/20 00:12:22;;;;;;;4.38;2.80;;;10.30;74.00;;;;;;5001660;28;19924;-79
2022/04/20 00:14:52;;;;;;;3.58;2.58;;;10.30;73.80;;;;;;4983701;28;20050;-79
2022/04/20 00:17:25;;;;;;;4.18;2.20;;;10.30;73.50;;;;;;4981672;28;20021;-78
2022/04/20 00:19:55;;;;;;;6.70;2.53;;;10.20;73.30;;;;;;5000036;28;20130;-79
2022/04/20 00:22:21;;;;;;;7.18;3.00;;;10.20;73.40;;;;;;5001854;28;20057;-79
2022/04/20 00:24:48;;;;;;;5.47;2.95;;;10.20;73.40;;;;;;4999476;28;20026;-79
2022/04/20 00:27:14;;;;;;;3.35;1.67;;;10.20;73.20;;;;;;4985380;28;20029;-78
2022/04/20 00:29:41;;;;;;;3.60;1.80;;;10.20;72.90;;;;;;4982507;28;20706;-79
2022/04/20 00:32:08;;;;;;;2.85;1.73;;;10.20;72.80;;;;;;4985425;28;20373;-79
2022/04/20 00:34:34;;;;;;;3.95;2.00;;;10.20;72.80;;;;;;5007374;28;20036;-82
2022/04/20 00:37:01;;;;;;;3.47;1.90;;;10.20;72.70;;;;;;4976793;28;20034;-82
2022/04/20 00:39:28;;;;;;;2.50;1.90;;;10.10;72.90;;;;;;4994172;28;20045;-82
2022/04/20 00:41:55;;;;;;;3.67;2.17;;;10.10;72.90;;;;;;4988692;28;20045;-83
2022/04/20 00:44:22;;;;;;;3.35;1.77;;;10.10;73.40;;;;;;4995022;28;20037;-83
2022/04/20 00:46:49;;;;;;;3.75;1.83;;;10.10;72.90;;;;;;4992352;28;20045;-82
2022/04/20 00:49:17;;;;;;;3.78;1.85;;;10.10;72.70;;;;;;4959930;28;20038;-82
2022/04/20 00:51:57;;;;;;;3.63;1.60;;;10.10;72.80;;;;;;4961980;28;20037;-82
2022/04/20 00:54:25;;;;;;;4.35;2.03;;;10.00;72.60;;;;;;4987196;28;20029;-82
2022/04/20 00:56:53;;;;;;;2.78;1.92;;;10.00;72.50;;;;;;4961782;28;20037;-82
2022/04/20 00:59:23;;;;;;;2.88;1.50;;;10.00;72.40;;;;;;4975153;28;20042;-82
2022/04/20 01:01:50;;;;;;;3.28;1.83;;;10.00;72.30;;;;;;4990254;28;20041;-83
2022/04/20 01:04:21;;;;;;;2.58;1.58;;;10.00;72.30;;;;;;4993873;28;20362;-82
2022/04/20 01:07:12;;;;;;;2.67;1.40;;;10.00;72.00;;;;;;4993664;28;20034;-82
2022/04/20 01:09:58;;;;;;;5.30;1.58;;;9.90;71.80;;;;;;5008398;28;20393;-82
2022/04/20 01:12:40;;;;;;;2.67;1.30;;;9.90;71.70;;;;;;4966725;28;20060;-82
2022/04/20 01:15:25;;;;;;;2.35;1.10;;;9.90;71.60;;;;;;5005286;28;20034;-82
2022/04/20 01:18:24;;;;;;;4.72;1.65;;;9.90;71.50;;;;;;4990791;28;20131;-82
2022/04/20 01:21:10;;;;;;;3.38;1.55;;;9.90;71.40;;;;;;4993162;28;20033;-82
2022/04/20 01:23:55;;;;;;;2.20;1.00;;;9.90;71.30;;;;;;5006296;28;20485;-81
2022/04/20 01:27:02;;;;;;;4.50;1.50;;;9.90;71.20;;;;;;4940633;28;20115;-82
2022/04/20 01:29:54;;;;;;;2.20;1.25;;;9.90;71.00;;;;;;4939228;28;20031;-82
2022/04/20 01:32:40;;;;;;;2.28;1.35;;;9.90;70.70;;;;;;4997285;28;20045;-82
2022/04/20 01:35:26;;;;;;;3.58;1.20;;;9.90;70.60;;;;;;4993064;28;20039;-82
2022/04/20 01:37:55;;;;;;;3.88;1.95;;;9.80;70.40;;;;;;4988544;28;20377;-82
2022/04/20 01:40:22;;;;;;;3.50;0.95;;;9.80;70.40;;;;;;5003102;28;20032;-82
2022/04/20 01:42:49;;;;;;;3.65;1.35;;;9.80;70.30;;;;;;5000853;28;20363;-81
2022/04/20 01:45:15;;;;;;;2.67;1.27;;;9.80;70.30;;;;;;4988767;28;20025;-82
2022/04/20 01:47:48;;;;;;;3.20;1.23;;;9.80;70.30;;;;;;5000613;28;20129;-81
2022/04/20 01:50:28;;;;;;;2.58;1.13;;;9.70;70.30;;;;;;5022280;28;20497;-82
2022/04/20 01:53:02;;;;;;;4.70;1.55;;;9.70;70.30;;;;;;4990847;28;20389;-82
2022/04/20 01:55:50;;;;;;;4.15;1.80;;;9.70;70.50;;;;;;5002305;28;20520;-82
2022/04/20 01:58:39;;;;;;;2.17;1.20;;;9.70;70.40;;;;;;4976941;28;20050;-82
2022/04/20 02:04:21;;;;;;;2.00;1.10;;;9.60;70.00;;;;;;5002714;28;19920;-82
2022/04/20 02:06:49;;;;;;;3.78;1.05;;;9.70;70.00;;;;;;4961596;28;20034;-82
2022/04/20 02:09:24;;;;;;;5.10;1.65;;;9.70;69.80;;;;;;4984528;28;20050;-82
2022/04/20 02:12:03;;;;;;;2.58;1.23;;;9.70;69.60;;;;;;5004436;28;20026;-82
2022/04/20 02:15:02;;;;;;;2.45;1.23;;;9.70;69.60;;;;;;5005768;28;20034;-82
2022/04/20 02:17:48;;;;;;;3.13;1.35;;;9.60;69.50;;;;;;5005013;28;20038;-81
2022/04/20 02:20:20;;;;;;;2.92;1.60;;;9.60;69.40;;;;;;4989690;28;20042;-82
2022/04/20 02:22:47;;;;;;;3.13;1.45;;;9.60;69.40;;;;;;4977446;28;20045;-82
2022/04/20 02:25:14;;;;;;;4.65;1.60;;;9.60;69.40;;;;;;4948680;28;20033;-82
2022/04/20 02:27:40;;;;;;;3.05;1.15;;;9.60;69.40;;;;;;5009055;28;20046;-82
2022/04/20 02:30:08;;;;;;;2.15;1.25;;;9.60;69.40;;;;;;5008945;28;20026;-82
2022/04/20 02:32:37;;;;;;;2.83;1.27;;;9.60;69.40;;;;;;4976764;28;20037;-82
2022/04/20 02:35:03;;;;;;;1.60;0.65;;;9.50;70.00;;;;;;4971214;28;20370;-82
2022/04/20 02:37:30;;;;;;;4.53;1.50;;;9.50;69.30;;;;;;4960594;28;20148;-82
2022/04/20 02:39:57;;;;;;;1.65;0.90;;;9.50;69.30;;;;;;4993943;28;20046;-82
2022/04/20 02:42:23;;;;;;;3.42;1.10;;;9.40;69.30;;;;;;4994265;28;20045;-82
2022/04/20 02:44:50;;;;;;;1.92;1.10;;;9.40;69.30;;;;;;4994348;28;20469;-82
2022/04/20 02:47:17;;;;;;;2.53;1.35;;;9.40;69.10;;;;;;5004799;28;20018;-82
2022/04/20 02:49:44;;;;;;;1.98;1.05;;;9.40;69.00;;;;;;4989459;28;20363;-83
2022/04/20 02:52:10;;;;;;;4.93;1.40;;;9.40;69.00;;;;;;4986751;28;20034;-83
2022/04/20 02:54:37;;;;;;;2.00;0.80;;;9.40;69.00;;;;;;4992575;28;20418;-82
2022/04/20 02:57:04;;;;;;;2.97;1.38;;;9.40;69.00;;;;;;4989920;28;20097;-82
2022/04/20 02:59:30;;;;;;;2.65;1.27;;;9.40;69.10;;;;;;4988105;28;20046;-83
2022/04/20 03:02:00;;;;;;;3.03;1.30;;;9.40;69.10;;;;;;4992252;28;20034;-82
2022/04/20 03:04:27;;;;;;;3.28;1.02;;;9.40;69.80;;;;;;4976835;28;20497;-82
2022/04/20 03:06:54;;;;;;;3.25;1.10;;;9.30;69.10;;;;;;5008060;28;20033;-82
2022/04/20 03:09:32;;;;;;;2.78;1.45;;;9.30;69.20;;;;;;4974400;28;20058;-82
2022/04/20 03:12:01;;;;;;;2.38;1.20;;;9.30;69.10;;;;;;5022646;28;20057;-82
2022/04/20 03:14:28;;;;;;;6.15;1.40;;;9.30;69.10;;;;;;4990900;28;20048;-81
2022/04/20 03:17:02;;;;;;;1.95;1.15;;;9.40;69.10;;;;;;4976956;28;20034;-82
2022/04/20 03:19:29;;;;;;;2.42;0.90;;;9.40;69.00;;;;;;4986873;28;20029;-82
2022/04/20 03:21:56;;;;;;;2.55;1.30;;;9.40;69.30;;;;;;4988134;28;20717;-82
2022/04/20 03:24:26;;;;;;;2.50;1.10;;;9.30;69.40;;;;;;4994914;28;20037;-82
2022/04/20 03:27:09;;;;;;;3.83;1.20;;;9.30;69.60;;;;;;4966784;28;20037;-82
2022/04/20 03:29:45;;;;;;;2.38;1.30;;;9.20;69.80;;;;;;4978756;28;20038;-82
2022/04/20 03:32:16;;;;;;;3.00;1.30;;;9.20;69.80;;;;;;4990621;28;20049;-83
2022/04/20 03:34:45;;;;;;;2.75;1.23;;;9.10;70.60;;;;;;5000964;28;20439;-83
2022/04/20 03:37:12;;;;;;;3.30;0.80;;;9.10;70.20;;;;;;5021652;28;20029;-83
2022/04/20 03:39:41;;;;;;;2.38;1.10;;;9.10;70.40;;;;;;4985504;28;20390;-83
2022/04/20 03:42:08;;;;;;;1.58;0.75;;;9.10;70.30;;;;;;5005553;28;20485;-83
2022/04/20 03:44:36;;;;;;;3.42;1.20;;;9.00;70.40;;;;;;5006108;28;20041;-82
2022/04/20 03:47:03;;;;;;;2.85;1.00;;;9.00;70.40;;;;;;5023948;28;20030;-82
2022/04/20 03:49:30;;;;;;;2.42;1.33;;;9.00;70.70;;;;;;4971018;28;20133;-82
2022/04/20 03:51:57;;;;;;;1.75;0.90;;;8.90;70.70;;;;;;4985807;28;20061;-83
2022/04/20 03:54:29;;;;;;;;;;;8.90;70.60;;;;;;5005715;28;20033;-82
2022/04/20 03:57:04;;;;;;;3.80;1.00;;;8.90;70.70;;;;;;4996646;28;19917;-82
2022/04/20 03:59:36;;;;;;;4.63;0.90;;;8.90;70.90;;;;;;4993986;28;20976;-83
2022/04/20 04:02:05;;;;;;;2.13;0.90;;;8.90;70.90;;;;;;4976293;28;20045;-82
2022/04/20 04:04:35;;;;;;;2.75;0.95;;;8.80;70.80;;;;;;4975328;28;20037;-82
2022/04/20 04:07:10;;;;;;;2.58;0.90;;;8.80;71.00;;;;;;5005798;28;20599;-82
2022/04/20 04:09:38;;;;;;;3.17;1.00;;;8.80;71.10;;;;;;4986637;28;20050;-82
2022/04/20 04:12:06;;;;;;;2.92;1.20;;;8.70;71.10;;;;;;4977574;28;20034;-82
2022/04/20 04:14:42;;;;;;;3.65;1.20;;;8.70;71.10;;;;;;4989023;28;20491;-82
2022/04/20 04:17:09;;;;;;;3.42;1.23;;;8.70;71.10;;;;;;5004995;28;20041;-82
2022/04/20 04:19:37;;;;;;;2.38;1.35;;;8.70;71.30;;;;;;4989294;28;20029;-82
2022/04/20 04:22:04;;;;;;;2.97;1.10;;;8.70;71.30;;;;;;4974907;28;20034;-82
2022/04/20 04:24:36;;;;;;;3.38;1.02;;;8.70;71.40;;;;;;4974161;28;20041;-82
2022/04/20 04:27:11;;;;;;;3.17;1.00;;;8.70;71.30;;;;;;4977663;28;20048;-82
2022/04/20 04:29:41;;;;;;;2.13;1.10;;;8.70;71.30;;;;;;5006100;28;20014;-82
2022/04/20 04:32:08;;;;;;;1.90;1.10;;;8.70;71.20;;;;;;4971949;28;20042;-79
2022/04/20 04:34:35;;;;;;;2.95;1.60;;;8.70;71.20;;;;;;4999403;28;20037;-79
2022/04/20 04:37:09;;;;;;;2.97;1.20;;;8.70;71.40;;;;;;4998962;28;20026;-79
2022/04/20 04:39:36;;;;;;;3.50;1.50;;;8.70;71.30;;;;;;4980410;28;20045;-80
2022/04/20 04:42:06;;;;;;;2.33;0.93;;;8.70;71.50;;;;;;4985730;28;20037;-78
2022/04/20 04:44:34;;;;;;;3.63;1.58;;;8.60;71.60;;;;;;4983238;28;20037;-77
2022/04/20 04:50:01;;;;;;;2.80;1.42;;;8.60;71.80;;;;;;5016642;28;20390;-79
2022/04/20 04:52:28;;;;;;;2.78;0.90;;;8.60;72.00;;;;;;4984854;28;20389;-77
2022/04/20 04:55:01;;;;;;;2.17;0.80;;;8.60;72.00;;;;;;4951528;28;20033;-81
2022/04/20 04:57:31;;;;;;;2.08;0.90;;;8.60;72.00;;;;;;4986218;28;20041;-82
2022/04/20 04:59:58;;;;;;;2.75;1.40;;;8.60;72.00;;;;;;5001678;28;20030;-82
2022/04/20 05:02:26;;;;;;;5.50;1.10;;;8.60;72.00;;;;;;4968608;28;20613;-82
2022/04/20 05:04:53;;;;;;;2.05;1.00;;;8.70;72.00;;;;;;4999295;28;20034;-82
2022/04/20 05:07:20;;;;;;;3.83;1.15;;;8.70;71.90;;;;;;4971126;28;20026;-84
2022/04/20 05:09:55;;;;;;;3.65;1.00;;;8.70;71.90;;;;;;4988016;28;20046;-82
2022/04/20 05:12:23;;;;;;;2.72;0.75;;;8.70;71.90;;;;;;4983779;28;20037;-82
2022/04/20 05:14:50;;;;;;;3.03;1.00;;;8.80;71.90;;;;;;4984185;28;20675;-81
2022/04/20 05:17:17;;;;;;;2.90;1.20;;;8.80;71.80;;;;;;4955906;28;20053;-81
2022/04/20 05:19:44;;;;;;;2.10;1.00;;;8.90;71.80;;;;;;4951261;28;20109;-82
2022/04/20 05:22:16;;;;;;;4.75;1.02;;;8.90;71.70;;;;;;4983949;28;20832;-81
2022/04/20 05:24:43;;;;;;;2.25;0.75;;;8.90;71.50;;;;;;4999088;28;20026;-81
2022/04/20 05:27:14;;;;;;;2.00;0.63;;;8.90;71.50;;;;;;4970193;28;20034;-81
2022/04/20 05:29:51;;;;;;;2.22;0.90;;;8.90;71.40;;;;;;4966907;28;20025;-81
2022/04/20 05:32:17;;;;;;;2.08;0.95;;;9.00;71.40;;;;;;4969610;28;20034;-80
2022/04/20 05:34:44;;;;;;;1.85;0.60;;;9.00;71.40;;;;;;5001402;28;20026;-81
2022/04/20 05:42:46;;;;;;;2.65;1.10;;;9.10;71.20;;;;;;4970183;28;20049;-81
2022/04/20 05:45:13;;;;;;;2.88;0.80;;;9.20;71.10;;;;;;4953789;28;20037;-81
2022/04/20 05:47:43;;;;;;;3.05;0.90;;;9.20;70.80;;;;;;4970913;28;20469;-81
2022/04/20 05:50:10;;;;;;;3.05;0.82;;;9.30;70.60;;;;;;4984953;28;20496;-80
2022/04/20 05:52:37;;;;;;;3.25;1.00;;;9.40;70.50;;;;;;4983065;28;20366;-80
2022/04/20 05:55:04;;;;;;;1.90;0.70;;;9.50;70.10;;;;;;4988090;28;20046;-80
2022/04/20 05:57:33;;;;;;;1.27;0.57;;;9.60;70.00;;;;;;4965386;28;20041;-80
2022/04/20 06:00:00;;;;;;;2.38;0.88;;;9.80;69.70;;;;;;4983379;28;20378;-79
2022/04/20 06:02:27;;;;;;;3.35;0.90;;;10.00;69.30;;;;;;4985800;28;20033;-79
2022/04/20 06:04:53;;;;;;;3.10;0.90;;;10.10;68.60;;;;;;4982372;28;20482;-79
2022/04/20 06:07:20;;;;;;;2.95;0.98;;;10.30;68.10;;;;;;4962870;28;20029;-80
2022/04/20 06:09:57;;;;;;;2.08;0.80;;;10.40;67.80;;;;;;4973555;28;312265;-79
2022/04/20 06:12:44;;;;;;;2.67;0.70;;;10.60;67.70;;;;;;5001158;28;20037;-79
2022/04/20 06:15:32;;;;;;;3.63;0.80;;;10.70;67.10;;;;;;4997318;28;20042;-79
2022/04/20 06:18:21;;;;;;;1.60;0.60;;;10.90;67.00;;;;;;4971699;28;20030;-79
2022/04/20 06:21:21;;;;;;;1.80;0.70;;;11.10;66.70;;;;;;4999533;28;20048;-79
2022/04/20 06:24:34;;;;;;;2.03;1.13;;;11.20;66.10;;;;;;5000793;28;20038;-79
2022/04/20 06:27:21;;;;;;;2.00;0.70;;;11.40;66.50;;;;;;4985185;28;20050;-78
2022/04/20 06:30:15;;;;;;;3.40;0.70;;;11.50;65.80;;;;;;5003443;28;20029;-79
2022/04/20 06:33:10;;;;;;;2.67;1.05;;;11.70;65.10;;;;;;5000452;28;20041;-79
2022/04/20 06:36:03;;;;;;;2.63;0.90;;;11.80;65.20;;;;;;4987449;28;20050;-79
2022/04/20 06:39:01;;;;;;;3.88;1.00;;;11.90;64.40;;;;;;5002501;28;20041;-79
2022/04/20 06:42:03;;;;;;;3.53;0.90;;;12.00;64.30;;;;;;4997943;28;20042;-80
2022/04/20 06:45:04;;;;;;;3.30;0.80;;;12.10;63.40;;;;;;4969725;28;20481;-79
2022/04/20 06:47:43;;;;;;;1.90;0.80;;;12.20;63.60;;;;;;4984053;28;20474;-80
2022/04/20 06:50:40;;;;;;;2.88;1.20;;;12.40;63.50;;;;;;4963291;28;20034;-79
2022/04/20 06:59:14;;;;;;;1.75;1.00;;;13.10;61.00;;;;;;5001979;28;20030;-79
2022/04/20 07:01:59;;;;;;;2.45;0.85;;;13.30;60.50;;;;;;5004908;28;20018;-79
2022/04/20 07:04:48;;;;;;;1.98;0.80;;;13.20;60.50;;;;;;4985836;28;20037;-79
2022/04/20 07:07:45;;;;;;;2.20;1.00;;;13.30;60.80;;;;;;4993003;28;20060;-79
2022/04/20 07:10:33;;;;;;;2.05;0.93;;;13.40;60.60;;;;;;4983763;28;20069;-80
2022/04/20 07:13:19;;;;;;;2.00;1.00;;;13.50;60.20;;;;;;4979120;28;20045;-79
2022/04/20 07:15:50;;;;;;;1.75;0.73;;;13.50;60.10;;;;;;5017794;28;21105;-79
2022/04/20 07:18:20;;;;;;;3.10;0.80;;;13.60;60.40;;;;;;4998972;28;20031;-79
2022/04/20 07:21:06;;;;;;;7.28;1.05;;;13.70;60.40;;;;;;4995470;28;20022;-79
2022/04/20 07:23:51;;;;;;;3.85;1.02;;;13.90;59.80;;;;;;5003485;28;20040;-80
2022/04/20 07:26:41;;;;;;;4.43;0.88;;;14.00;59.30;;;;;;4945038;28;20038;-79
2022/04/20 07:29:28;;;;;;;1.98;0.80;;;14.00;59.50;;;;;;4966076;28;20081;-80
2022/04/20 07:32:23;;;;;;;3.08;0.70;;;14.10;59.40;;;;;;4987598;28;20045;-79
2022/04/20 07:35:08;;;;;;;3.50;1.10;;;14.20;59.30;;;;;;4988166;28;21819;-78
2022/04/20 07:37:57;;;;;;;3.15;0.73;;;14.30;59.30;;;;;;4997573;28;20033;-83
2022/04/20 07:40:42;;;;;;;3.28;0.82;;;14.40;58.70;;;;;;4999414;28;20375;-81
2022/04/20 07:43:32;;;;;;;2.63;1.00;;;14.40;58.70;;;;;;4940166;28;20073;-83
2022/04/20 07:46:17;;;;;;;3.85;1.20;;;14.50;58.50;;;;;;4974079;28;20022;-81
2022/04/20 07:52:19;;;;;;;3.08;0.82;;;14.80;58.20;;;;;;4974074;28;20250;-84
2022/04/20 07:55:13;;;;;;;3.35;0.93;;;14.80;57.50;;;;;;4987772;28;20038;-80
2022/04/20 07:58:01;;;;;;;2.23;0.73;;;14.90;57.80;;;;;;5000662;28;20046;-79
2022/04/20 08:00:49;;;;;;;3.10;1.27;;;15.00;58.00;;;;;;4998462;28;20041;-79
2022/04/20 08:03:35;;;;;;;1.92;1.13;;;15.20;57.90;;;;;;4965220;28;20421;-80
2022/04/20 08:06:04;;;;;;;6.38;0.80;;;15.30;57.50;;;;;;4966910;28;20041;-79
2022/04/20 08:08:34;;;;;;;1.60;0.68;;;15.40;56.60;;;;;;4985202;28;20041;-79
2022/04/20 08:11:01;;;;;;;2.45;0.90;;;15.50;56.70;;;;;;4998226;28;20042;-79
2022/04/20 08:16:37;;;;;;;2.67;1.65;;;15.60;56.60;;;;;;5001514;28;20018;-80
2022/04/20 08:19:22;;;;;;;3.35;0.70;;;15.80;56.20;;;;;;5013464;28;20041;-81
2022/04/20 08:22:07;;;;;;;3.03;0.70;;;15.80;55.00;;;;;;4987551;28;20030;-82
2022/04/20 08:24:36;;;;;;;1.50;0.70;;;15.80;54.60;;;;;;4980593;28;20025;-86
2022/04/20 08:27:03;;;;;;;3.78;0.70;;;15.90;55.00;;;;;;4969299;28;20033;-81
2022/04/20 08:29:30;;;;;;;3.58;1.02;;;15.90;55.10;;;;;;4996422;28;20481;-82
2022/04/20 08:31:56;;;;;;;2.08;0.70;;;16.00;54.80;;;;;;5001731;28;20045;-82
2022/04/20 08:34:25;;;;;;;1.92;0.60;;;16.10;55.10;;;;;;4938157;28;20069;-90
2022/04/20 08:37:03;;;;;;;3.78;1.00;;;16.30;55.40;;;;;;4954204;28;20508;-82
2022/04/20 08:39:29;;;;;;;2.10;1.02;;;16.40;53.90;;;;;;4964914;28;20048;-82
2022/04/20 08:41:59;;;;;;;4.50;1.33;;;16.40;54.00;;;;;;4998906;28;20038;-82
2022/04/20 08:44:27;;;;;;;4.15;1.02;;;16.50;53.70;;;;;;4997623;28;20030;-81
2022/04/20 08:47:03;;;;;;;3.05;1.15;;;16.50;54.00;;;;;;4994773;28;20041;-83
2022/04/20 08:49:30;;;;;;;2.63;0.77;;;16.40;53.60;;;;;;4984629;28;20030;-83
2022/04/20 08:54:44;;;;;;;2.65;0.80;;;16.50;54.30;;;;;;5000522;28;20026;-82
2022/04/20 08:57:18;;;;;;;2.50;1.08;;;16.50;54.40;;;;;;4999349;28;20026;-83
2022/04/20 08:59:48;;;;;;;3.70;1.20;;;16.60;53.60;;;;;;4960518;28;20045;-82
2022/04/20 09:02:16;;;;;;;3.35;1.00;;;16.70;53.80;;;;;;5001175;28;20029;-77
2022/04/20 09:04:42;;;;;;;2.30;0.90;;;16.60;53.30;;;;;;4999004;28;20037;-77
2022/04/20 09:07:11;;;;;;;2.17;0.77;;;16.70;53.50;;;;;;4982960;28;20326;-77
2022/04/20 09:09:38;;;;;;;1.75;0.60;;;16.80;53.60;;;;;;4993356;28;20057;-78
2022/04/20 09:12:19;;;;;;;1.25;0.82;;;16.80;53.40;;;;;;4996905;28;20049;-78
2022/04/20 09:14:50;;;;;;;1.73;0.70;;;16.90;53.00;;;;;;4984491;28;20026;-78
2022/04/20 09:17:21;;;;;;;1.88;0.70;;;17.10;53.40;;;;;;4998218;28;20026;-78
2022/04/20 09:19:53;;;;;;;2.30;1.23;;;17.10;52.20;;;;;;4963398;28;20028;-78
2022/04/20 09:22:23;;;;;;;1.67;0.73;;;17.10;52.40;;;;;;4995454;28;20030;-82
2022/04/20 09:25:07;;;;;;;4.40;1.25;;;17.10;52.70;;;;;;4984252;28;20038;-85
2022/04/20 09:27:36;;;;;;;2.13;0.90;;;17.30;52.80;;;;;;4997556;28;20060;-83
2022/04/20 09:30:08;;;;;;;3.85;0.98;;;17.40;52.60;;;;;;4979488;28;20037;-78
2022/04/20 09:32:42;;;;;;;2.20;1.02;;;17.40;53.40;;;;;;4996877;28;20022;-78
2022/04/20 09:35:14;;;;;;;2.42;1.08;;;17.50;52.90;;;;;;4996104;28;20022;-78
2022/04/20 09:37:42;;;;;;;1.65;0.90;;;17.60;52.90;;;;;;4969527;28;20034;-84
2022/04/20 09:40:34;;;;;;;1.85;0.93;;;17.70;52.60;;;;;;4996579;28;20034;-78
2022/04/20 09:43:09;;;;;;;2.75;1.45;;;17.80;52.00;;;;;;4996215;28;20041;-77
2022/04/20 09:45:38;;;;;;;2.58;0.88;;;17.80;52.40;;;;;;4981707;28;20022;-78
2022/04/20 09:51:07;;;;;;;1.55;0.70;;;17.80;52.40;;;;;;4995504;28;20963;-78
2022/04/20 09:53:34;;;;;;;1.50;0.80;;;18.00;52.30;;;;;;4997330;28;20504;-78
2022/04/20 09:56:22;;;;;;;2.63;0.80;;;18.10;51.00;;;;;;4995707;28;20034;-78
2022/04/20 09:59:06;;;;;;;2.22;1.33;;;18.20;50.90;;;;;;4999624;28;20508;-78
2022/04/20 10:01:35;;;;;;;3.55;0.90;;;18.30;51.30;;;;;;4979705;28;20019;-78
2022/04/20 10:04:06;;;;;;;2.75;0.85;;;18.30;51.50;;;;;;4995706;28;20045;-78
2022/04/20 10:06:34;;;;;;;2.95;0.80;;;18.40;51.50;;;;;;4998580;28;20034;-78
2022/04/20 10:09:00;;;;;;;1.98;0.60;;;18.60;50.70;;;;;;4982160;28;20018;-78
2022/04/20 10:11:36;;;;;;;2.03;0.88;;;18.50;51.00;;;;;;4964646;28;20520;-86
2022/04/20 10:16:52;;;;;;;2.72;0.70;;;18.70;50.40;;;;;;4997304;28;20046;-83
2022/04/20 10:19:27;;;;;;;2.42;1.27;;;18.90;50.10;;;;;;4966990;28;20026;-83
2022/04/20 10:21:57;;;;;;;1.98;0.95;;;19.00;49.80;;;;;;4981553;28;20541;-82
2022/04/20 10:24:29;;;;;;;4.47;2.67;;;19.10;48.40;;;;;;4980137;28;20039;-81
2022/04/20 10:27:06;;;;;;;3.38;1.05;;;19.00;48.80;;;;;;4951882;28;20049;-82
2022/04/20 10:29:52;;;;;;;1.75;1.00;;;19.10;49.30;;;;;;4980711;28;20513;-82
2022/04/20 10:32:24;;;;;;;1.63;0.90;;;19.30;49.80;;;;;;4999164;28;20025;-82
2022/04/20 10:34:59;;;;;;;2.30;0.95;;;19.50;48.30;;;;;;4997453;28;20402;-81
2022/04/20 10:37:35;;;;;;;2.58;0.77;;;19.50;48.00;;;;;;4956966;28;20034;-85
2022/04/20 10:40:20;;;;;;;1.80;0.77;;;19.70;48.50;;;;;;4969237;28;20026;-85
2022/04/20 10:43:21;;;;;;;3.03;1.00;;;19.80;48.60;;;;;;4986077;28;20030;-86
2022/04/20 10:46:05;;;;;;;2.05;0.70;;;20.00;48.90;;;;;;4999880;28;20077;-86
2022/04/20 10:48:56;;;;;;;1.25;0.70;;;20.40;48.90;;;;;;5005240;28;20021;-84
2022/04/20 10:51:24;;;;;;;1.63;0.80;;;20.90;47.80;;;;;;4974388;28;20038;-83
2022/04/20 10:53:52;;;;;;;1.85;0.80;;;21.20;46.50;;;;;;5000283;28;20042;-83
2022/04/20 10:56:21;;;;;;;3.72;0.90;;;21.40;46.30;;;;;;4982656;28;20034;-83
2022/04/20 10:58:52;;;;;;;1.98;0.77;;;21.70;45.70;;;;;;4999001;28;20049;-87
2022/04/20 11:01:19;;;;;;;4.15;0.70;;;21.80;45.50;;;;;;4946306;28;20038;-80
2022/04/20 11:04:10;;;;;;;1.65;0.70;;;22.20;45.40;;;;;;4981444;28;20038;-82
2022/04/20 11:06:58;;;;;;;2.83;0.65;;;22.30;44.20;;;;;;4984831;28;20030;-78
2022/04/20 11:09:44;;;;;;;2.33;0.70;;;22.50;44.70;;;;;;4998149;28;20149;-79
2022/04/20 11:21:07;;;;;;;1.40;0.60;;;23.30;43.10;;;;;;4996646;28;20365;-78
2022/04/20 11:23:50;;;;;;;3.13;0.82;;;23.70;43.10;;;;;;4985394;28;20021;-81
2022/04/20 11:26:27;;;;;;;2.35;0.82;;;24.10;42.50;;;;;;4983392;28;20034;-80
2022/04/20 11:29:08;;;;;;;3.20;0.77;;;24.40;41.80;;;;;;4998984;28;20033;-83
2022/04/20 11:31:36;;;;;;;2.88;0.82;;;24.60;41.10;;;;;;4981556;28;20041;-83
2022/04/20 11:34:04;;;;;;;1.73;0.60;;;24.60;40.60;;;;;;4986540;28;20038;-83
2022/04/20 11:36:33;;;;;;;2.28;0.80;;;24.70;40.80;;;;;;4964978;28;20026;-82
2022/04/20 11:39:00;;;;;;;1.80;0.80;;;25.00;40.50;;;;;;4985992;28;20382;-82
2022/04/20 11:41:27;;;;;;;1.67;0.70;;;25.10;40.10;;;;;;4965270;28;20406;-83
2022/04/20 11:43:54;;;;;;;2.20;0.70;;;25.40;40.60;;;;;;4983378;28;20026;-83
2022/04/20 11:46:24;;;;;;;1.60;0.70;;;25.50;39.40;;;;;;5000103;28;20014;-83
2022/04/20 11:48:52;;;;;;;2.80;0.80;;;25.50;39.50;;;;;;4984987;28;20042;-83
2022/04/20 11:51:31;;;;;;;3.70;0.90;;;25.70;39.50;;;;;;4997593;28;20394;-83
2022/04/20 11:53:58;;;;;;;2.90;1.00;;;26.00;39.10;;;;;;4983734;28;20037;-84
2022/04/20 11:56:51;;;;;;;2.25;0.70;;;26.30;39.50;;;;;;4982660;28;20057;-82
2022/04/20 11:59:24;;;;;;;1.80;0.98;;;26.50;38.40;;;;;;4981813;28;20049;-80
2022/04/20 12:01:51;;;;;;;2.45;1.52;;;26.30;37.90;;;;;;4964397;28;20037;-81
2022/04/20 12:04:20;;;;;;;2.08;0.80;;;26.30;37.70;;;;;;4966696;28;20031;-79
2022/04/20 12:06:49;;;;;;;1.90;0.88;;;26.40;38.60;;;;;;4980904;28;20034;-83
2022/04/20 12:09:18;;;;;;;3.28;0.70;;;26.60;38.30;;;;;;4999238;28;20401;-84
2022/04/20 12:11:47;;;;;;;1.77;0.70;;;26.80;37.70;;;;;;4964791;28;20038;-80
2022/04/20 12:14:14;;;;;;;2.83;0.70;;;26.90;38.20;;;;;;4975210;28;20050;-87
2022/04/20 12:16:41;;;;;;;1.65;0.60;;;27.10;37.80;;;;;;4965406;28;20405;-86
2022/04/20 12:19:10;;;;;;;2.25;0.70;;;27.40;37.60;;;;;;4980749;28;20041;-84
2022/04/20 12:21:40;;;;;;;1.40;0.70;;;27.70;37.20;;;;;;4981659;28;20405;-86
2022/04/20 12:24:21;;;;;;;1.92;0.70;;;27.70;36.90;;;;;;4983549;28;20917;-83
2022/04/20 12:26:50;;;;;;;3.88;1.30;;;27.70;37.90;;;;;;5015682;28;20034;-78
2022/04/20 12:29:20;;;;;;;3.70;1.13;;;27.90;37.00;;;;;;4979999;28;20042;-80
2022/04/20 12:31:49;;;;;;;27.52;21.08;;;28.00;36.20;;;;;;4995453;28;20038;-79
2022/04/20 12:34:17;;;;;;;2.33;1.23;;;27.70;36.40;;;;;;4995149;28;20389;-80
2022/04/20 12:37:03;;;;;;;2.92;0.85;;;27.60;36.40;;;;;;4977212;28;20481;-82
2022/04/20 12:39:39;;;;;;;1.20;0.70;;;27.70;37.20;;;;;;4993529;28;20264;-84
2022/04/20 12:42:10;;;;;;;1.35;0.70;;;27.70;36.20;;;;;;4982475;28;20504;-83
2022/04/20 12:44:54;;;;;;;1.88;0.60;;;27.70;36.40;;;;;;4985092;28;20049;-82
2022/04/20 12:47:22;;;;;;;;;;;27.70;36.80;;;;;;4983808;28;20045;-81
2022/04/20 12:50:03;;;;;;;2.17;0.80;;;27.90;36.30;;;;;;4983285;28;19913;-77
2022/04/20 12:52:31;;;;;;;2.38;0.63;;;28.10;36.30;;;;;;4998658;28;20475;-81
2022/04/20 12:55:08;;;;;;;3.35;1.33;;;27.90;36.10;;;;;;4996335;28;20034;-86
2022/04/20 13:03:11;;;;;;;1.35;0.80;;;27.70;36.60;;;;;;4980789;28;20040;-82
2022/04/20 13:05:40;;;;;;;2.10;0.70;;;27.80;36.50;;;;;;4982020;28;20585;-83
2022/04/20 13:08:08;;;;;;;3.58;0.70;;;28.20;36.60;;;;;;4986968;28;20034;-80
2022/04/20 13:10:39;;;;;;;1.33;0.50;;;28.60;36.60;;;;;;4984048;28;20413;-86
2022/04/20 13:13:07;;;;;;;1.92;0.70;;;28.90;36.30;;;;;;4971472;28;20022;-80
2022/04/20 13:15:39;;;;;;;1.80;0.93;;;29.30;35.80;;;;;;4984146;28;20022;-79
2022/04/20 13:18:06;;;;;;;1.10;0.70;;;29.60;34.90;;;;;;4949995;28;20030;-81
2022/04/20 13:20:59;;;;;;;3.45;0.90;;;29.60;34.50;;;;;;4950506;28;20045;-80
2022/04/20 13:23:54;;;;;;;1.35;0.70;;;29.50;35.00;;;;;;5003212;28;20030;-87
2022/04/20 13:30:46;;;;;;;2.45;0.55;;;29.70;34.50;;;;;;4923640;29;20047;-81
2022/04/20 13:33:16;;;;;;;1.38;0.50;;;30.10;34.80;;;;;;4925829;29;20550;-82
2022/04/20 13:35:47;;;;;;;1.20;0.60;;;30.20;34.00;;;;;;4908645;29;20044;-80
2022/04/20 13:38:56;;;;;;;;;;;;;;;;;;;;;
2022/04/20 13:42:34;;;;;;;;;;;;;;;;;;;;;
2022/04/20 13:45:32;;;;;;;6.68;3.45;;;30.90;33.10;;;;;;4876253;29;20059;-82
2022/04/20 13:48:00;;;;;;;;;;;30.80;32.80;;;;;;4904221;29;20059;-84
2022/04/20 13:50:50;;;;;;;2.28;0.70;;;30.70;32.60;;;;;;4931153;28;19921;-87
2022/04/20 13:53:41;;;;;;;1.63;0.60;;;30.80;32.80;;;;;;4946139;28;20445;-84
2022/04/20 13:56:11;;;;;;;1.20;0.47;;;30.80;32.70;;;;;;4938426;28;20474;-86
2022/04/20 13:58:38;;;;;;;2.90;0.65;;;30.70;32.60;;;;;;4920715;29;20432;-79
2022/04/20 14:01:13;;;;;;;0.95;0.55;;;30.50;32.90;;;;;;4921275;28;20051;-82
2022/04/20 14:04:52;;;;;;;2.60;0.80;;;30.40;32.50;;;;;;4910568;28;20039;-84
2022/04/20 14:07:43;;;;;;;1.88;0.50;;;30.60;32.80;;;;;;4915506;29;20042;-85
2022/04/20 14:10:14;;;;;;;3.87;0.97;;;30.90;33.00;;;;;;4898574;29;20432;-89
2022/04/20 14:12:41;;;;;;;1.95;0.68;;;31.20;32.00;;;;;;4882157;29;20044;-90
2022/04/20 14:15:18;;;;;;;1.65;0.40;;;30.90;31.90;;;;;;4895562;28;20071;-87
2022/04/20 14:17:46;;;;;;;2.08;0.80;;;30.90;32.40;;;;;;4915135;29;20432;-87
2022/04/20 14:20:25;;;;;;;1.67;0.63;;;30.90;32.60;;;;;;4922292;29;20150;-84
2022/04/20 14:22:51;;;;;;;4.28;0.85;;;30.80;32.10;;;;;;4911370;29;20047;-85
2022/04/20 14:34:20;;;;;;;0.82;0.50;;;29.80;32.50;;;;;;4925061;28;20518;-85